Time;durP1;ratioP1;P1;durP2;ratioP2;P2;SDS_P1;SDS_P2;PMS_P1;PMS_P2;Temp;Humidity;BMP_temperature;BMP_pressure;BME280_temperature;BME280_humidity;BME280_pressure;Samples;Min_cycle;Max_cycle;Signal;HPM_P1;HPM_P2
2021/12/04 00:00:53;;;;;;;1.50;0.90;;;15.50;47.20;;;;;;5099839;28;20466;-39
2021/12/04 00:03:18;;;;;;;1.10;0.80;;;15.50;47.20;;;;;;5100616;28;20027;-38
2021/12/04 00:05:53;;;;;;;1.02;0.70;;;15.50;47.30;;;;;;5083955;28;20020;-39
2021/12/04 00:08:21;;;;;;;1.15;0.73;;;15.50;47.30;;;;;;5101642;28;20131;-40
2021/12/04 00:10:47;;;;;;;0.93;0.70;;;15.50;47.30;;;;;;5101127;28;20047;-39
2021/12/04 00:13:13;;;;;;;0.95;0.73;;;15.50;47.40;;;;;;5101276;28;20466;-39
2021/12/04 00:15:39;;;;;;;0.80;0.70;;;15.40;47.40;;;;;;5066810;28;20608;-39
2021/12/04 00:18:07;;;;;;;1.42;0.80;;;15.50;47.40;;;;;;5101102;28;20012;-40
2021/12/04 00:20:35;;;;;;;1.10;0.70;;;15.50;47.50;;;;;;5101552;28;20504;-39
2021/12/04 00:23:01;;;;;;;1.10;0.70;;;15.50;47.50;;;;;;5101130;28;20039;-41
2021/12/04 00:25:27;;;;;;;0.93;0.63;;;15.40;47.50;;;;;;5101149;28;20042;-39
2021/12/04 00:27:54;;;;;;;0.85;0.77;;;15.40;47.50;;;;;;5082650;28;20025;-39
2021/12/04 00:30:20;;;;;;;0.73;0.60;;;15.50;47.60;;;;;;5099869;28;20016;-41
2021/12/04 00:32:59;;;;;;;0.90;0.77;;;15.50;47.60;;;;;;5082185;28;20035;-39
2021/12/04 00:51:35;;;;;;;1.20;0.70;;;15.40;47.70;;;;;;4999243;28;20034;-40
2021/12/04 00:54:01;;;;;;;1.00;0.80;;;15.40;47.80;;;;;;4982966;28;20105;-39
2021/12/04 00:56:27;;;;;;;1.30;0.90;;;15.40;47.80;;;;;;4998869;28;20057;-39
2021/12/04 00:58:53;;;;;;;1.08;0.65;;;15.40;47.80;;;;;;4999737;28;20034;-40
2021/12/04 01:01:19;;;;;;;1.10;0.70;;;15.40;47.80;;;;;;5000009;28;20031;-39
2021/12/04 01:03:46;;;;;;;0.60;0.50;;;15.40;47.80;;;;;;5000683;28;20026;-38
2021/12/04 01:06:12;;;;;;;0.95;0.60;;;15.40;47.80;;;;;;5000560;28;20113;-41
2021/12/04 01:08:38;;;;;;;1.27;0.70;;;15.40;47.90;;;;;;5000102;28;20081;-39
2021/12/04 01:11:05;;;;;;;1.38;0.80;;;15.40;47.90;;;;;;4999684;28;20034;-39
2021/12/04 01:13:31;;;;;;;1.70;1.08;;;15.40;48.00;;;;;;5000253;28;20017;-41
2021/12/04 01:15:57;;;;;;;1.02;0.70;;;15.30;48.00;;;;;;5056975;28;20086;-39
2021/12/04 01:18:23;;;;;;;0.90;0.70;;;15.30;48.00;;;;;;5059738;28;20071;-39
2021/12/04 01:20:49;;;;;;;0.82;0.70;;;15.30;48.00;;;;;;5059602;28;20475;-40
2021/12/04 01:23:18;;;;;;;1.00;0.70;;;15.30;48.00;;;;;;5058436;28;20059;-39
2021/12/04 01:25:44;;;;;;;1.73;0.70;;;15.30;48.10;;;;;;5058795;28;20047;-39
2021/12/04 01:28:10;;;;;;;1.35;0.70;;;15.30;48.10;;;;;;5058817;28;20017;-39
2021/12/04 01:30:36;;;;;;;0.77;0.60;;;15.30;48.10;;;;;;5060012;28;20017;-40
2021/12/04 01:33:02;;;;;;;1.48;0.80;;;15.30;48.10;;;;;;5059532;28;20001;-40
2021/12/04 01:35:28;;;;;;;1.48;0.60;;;15.30;48.10;;;;;;5059718;28;20617;-39
2021/12/04 01:37:55;;;;;;;0.88;0.65;;;15.30;48.20;;;;;;5059526;28;20044;-39
2021/12/04 01:40:21;;;;;;;0.77;0.60;;;15.30;48.20;;;;;;5059445;28;20472;-39
2021/12/04 01:42:46;;;;;;;0.70;0.60;;;15.30;48.20;;;;;;5059417;28;20116;-40
2021/12/04 01:45:13;;;;;;;0.82;0.63;;;15.30;48.30;;;;;;5060310;28;20020;-39
2021/12/04 01:47:40;;;;;;;1.38;0.88;;;15.30;48.30;;;;;;5060599;28;20024;-40
2021/12/04 01:50:06;;;;;;;0.98;0.60;;;15.30;48.30;;;;;;5060969;28;20082;-41
2021/12/04 01:52:31;;;;;;;0.50;0.50;;;15.30;48.30;;;;;;5059555;28;20009;-39
2021/12/04 01:54:57;;;;;;;1.02;0.73;;;15.30;48.30;;;;;;5058754;28;20047;-39
2021/12/04 01:57:24;;;;;;;1.15;0.80;;;15.30;48.30;;;;;;5058432;28;20029;-39
2021/12/04 01:59:50;;;;;;;0.95;0.75;;;15.30;48.30;;;;;;5058521;28;20021;-40
2021/12/04 02:02:17;;;;;;;0.75;0.55;;;15.30;48.40;;;;;;5059236;28;20036;-41
2021/12/04 02:04:42;;;;;;;1.10;0.70;;;15.30;48.40;;;;;;5059146;28;20541;-39
2021/12/04 02:07:11;;;;;;;1.02;0.80;;;15.20;48.40;;;;;;5062155;28;20108;-40
2021/12/04 02:09:37;;;;;;;0.50;0.50;;;15.30;48.40;;;;;;5079250;28;20029;-39
2021/12/04 02:12:05;;;;;;;0.70;0.50;;;15.20;48.40;;;;;;5077614;28;20025;-39
2021/12/04 02:14:39;;;;;;;0.95;0.65;;;15.30;48.50;;;;;;5079092;28;20036;-39
2021/12/04 02:17:05;;;;;;;0.80;0.60;;;15.20;48.50;;;;;;5077117;28;20009;-39
2021/12/04 02:19:31;;;;;;;0.68;0.50;;;15.30;48.50;;;;;;5077858;28;20141;-39
2021/12/04 02:21:58;;;;;;;0.85;0.60;;;15.30;48.50;;;;;;5078159;28;20089;-39
2021/12/04 02:24:24;;;;;;;0.80;0.50;;;15.20;48.50;;;;;;5077995;28;20017;-38
2021/12/04 02:26:50;;;;;;;1.42;0.63;;;15.20;48.50;;;;;;5077517;28;20147;-39
2021/12/04 02:29:16;;;;;;;0.50;0.50;;;15.20;48.50;;;;;;5077893;28;20052;-38
2021/12/04 02:31:47;;;;;;;0.90;0.70;;;15.20;48.50;;;;;;5077928;28;20013;-38
2021/12/04 02:34:19;;;;;;;1.00;0.75;;;15.20;48.60;;;;;;5077796;28;20043;-39
2021/12/04 02:36:45;;;;;;;0.73;0.57;;;15.20;48.70;;;;;;5077873;28;20012;-39
2021/12/04 02:39:23;;;;;;;0.98;0.70;;;15.20;48.70;;;;;;5078227;28;20017;-39
2021/12/04 02:41:50;;;;;;;0.77;0.65;;;15.20;48.70;;;;;;5060717;28;20032;-39
2021/12/04 02:44:16;;;;;;;0.63;0.55;;;15.20;49.30;;;;;;5078283;28;20099;-39
2021/12/04 02:46:41;;;;;;;1.20;0.70;;;15.20;48.70;;;;;;5077449;28;20052;-39
2021/12/04 02:49:09;;;;;;;0.77;0.65;;;15.20;49.30;;;;;;5076415;28;20021;-39
2021/12/04 02:51:35;;;;;;;0.98;0.65;;;15.20;48.80;;;;;;5076977;28;20029;-39
2021/12/04 02:54:01;;;;;;;0.75;0.60;;;15.10;48.70;;;;;;5077645;28;20094;-39
2021/12/04 02:56:28;;;;;;;0.73;0.50;;;15.20;48.80;;;;;;5076418;28;20471;-38
2021/12/04 02:59:00;;;;;;;0.60;0.60;;;15.20;48.70;;;;;;5076893;28;20492;-40
2021/12/04 03:01:26;;;;;;;1.30;0.75;;;15.20;48.80;;;;;;5077778;28;20017;-40
2021/12/04 03:03:52;;;;;;;1.13;0.85;;;15.10;48.80;;;;;;5077850;28;20649;-39
2021/12/04 03:06:19;;;;;;;1.00;0.68;;;15.10;48.90;;;;;;5077487;28;20028;-38
2021/12/04 03:08:46;;;;;;;0.90;0.60;;;15.10;48.90;;;;;;5094501;28;20401;-39
2021/12/04 03:11:12;;;;;;;0.75;0.60;;;15.10;48.90;;;;;;5097249;28;20032;-40
2021/12/04 03:13:38;;;;;;;0.65;0.60;;;15.10;48.90;;;;;;5097252;28;20028;-38
2021/12/04 03:16:05;;;;;;;1.23;0.70;;;15.10;48.90;;;;;;5097990;28;20023;-40
2021/12/04 03:18:31;;;;;;;0.73;0.60;;;15.10;48.90;;;;;;5098258;28;20036;-39
2021/12/04 03:21:02;;;;;;;1.20;0.60;;;15.10;49.00;;;;;;5098214;28;20032;-40
2021/12/04 03:23:39;;;;;;;1.05;0.60;;;15.10;49.50;;;;;;5097107;28;20028;-38
2021/12/04 03:26:09;;;;;;;0.80;0.70;;;15.10;49.00;;;;;;5098151;28;20050;-40
2021/12/04 03:28:35;;;;;;;0.95;0.57;;;15.10;49.00;;;;;;5080576;28;20016;-40
2021/12/04 03:31:08;;;;;;;1.13;0.60;;;15.10;49.00;;;;;;5079951;28;20033;-39
2021/12/04 03:41:47;;;;;;;2.00;0.60;;;15.10;49.10;;;;;;5083742;28;20032;-38
2021/12/04 03:44:13;;;;;;;0.65;0.55;;;15.10;49.20;;;;;;5098734;28;20017;-40
2021/12/04 03:46:39;;;;;;;0.60;0.60;;;15.00;49.10;;;;;;5084815;28;20023;-40
2021/12/04 03:49:05;;;;;;;1.00;0.60;;;15.10;49.20;;;;;;5084868;28;20016;-39
2021/12/04 03:51:31;;;;;;;0.88;0.60;;;15.10;49.20;;;;;;5102154;28;20496;-39
2021/12/04 03:53:58;;;;;;;0.70;0.60;;;15.00;49.20;;;;;;5067089;28;20382;-39
2021/12/04 03:56:24;;;;;;;1.30;0.70;;;15.10;49.30;;;;;;5101943;28;20040;-39
2021/12/04 03:58:50;;;;;;;0.73;0.57;;;15.00;49.20;;;;;;5102041;28;20012;-38
2021/12/04 04:01:16;;;;;;;0.93;0.50;;;15.10;49.30;;;;;;5101606;28;20013;-38
2021/12/04 04:03:42;;;;;;;1.17;0.70;;;15.00;49.20;;;;;;5100591;28;20028;-39
2021/12/04 04:06:08;;;;;;;0.88;0.70;;;15.10;49.30;;;;;;5101124;28;20094;-39
2021/12/04 04:08:34;;;;;;;1.23;0.60;;;15.00;49.20;;;;;;5099937;28;20127;-38
2021/12/04 04:11:00;;;;;;;0.93;0.60;;;15.00;49.30;;;;;;5100288;28;20039;-39
2021/12/04 04:13:26;;;;;;;1.10;0.70;;;15.10;49.40;;;;;;5101243;28;20021;-38
2021/12/04 04:15:53;;;;;;;1.48;0.70;;;15.10;49.40;;;;;;5100826;28;20039;-41
2021/12/04 04:18:19;;;;;;;1.10;0.75;;;15.00;49.30;;;;;;5101056;28;20020;-39
2021/12/04 04:20:45;;;;;;;1.35;0.70;;;15.00;49.30;;;;;;5101242;28;20020;-39
2021/12/04 04:23:10;;;;;;;0.85;0.60;;;15.00;49.90;;;;;;5084230;28;20048;-39
2021/12/04 04:25:37;;;;;;;0.88;0.70;;;15.00;49.30;;;;;;5101671;28;20042;-39
2021/12/04 04:28:03;;;;;;;1.02;0.52;;;15.10;49.40;;;;;;5101050;28;20016;-39
2021/12/04 04:30:29;;;;;;;0.80;0.60;;;15.00;49.40;;;;;;5100989;28;20493;-39
2021/12/04 04:32:55;;;;;;;0.50;0.50;;;15.00;49.40;;;;;;5100412;28;20032;-39
2021/12/04 04:35:24;;;;;;;0.82;0.70;;;15.00;49.40;;;;;;5082403;28;20012;-41
2021/12/04 04:59:19;;;;;;;1.02;0.70;;;14.90;49.50;;;;;;5099680;28;20028;-39
2021/12/04 05:15:15;;;;;;;0.80;0.60;;;15.00;49.70;;;;;;5099516;28;20016;-39
2021/12/04 05:17:55;;;;;;;0.80;0.60;;;15.00;49.70;;;;;;5099505;28;20035;-39
2021/12/04 05:20:26;;;;;;;2.35;0.60;;;14.90;49.70;;;;;;5099834;28;20024;-40
2021/12/04 05:22:52;;;;;;;0.52;0.50;;;14.90;49.70;;;;;;5081940;28;20044;-41
2021/12/04 05:25:17;;;;;;;1.17;0.70;;;15.00;49.80;;;;;;5099156;28;20028;-39
2021/12/04 05:27:43;;;;;;;1.20;0.60;;;14.90;49.70;;;;;;5080703;28;20069;-39
2021/12/04 05:30:13;;;;;;;0.70;0.60;;;14.90;49.70;;;;;;5099218;28;20028;-39
2021/12/04 05:32:38;;;;;;;0.55;0.50;;;14.90;49.70;;;;;;5098455;28;20015;-38
2021/12/04 05:35:05;;;;;;;0.60;0.52;;;14.90;49.60;;;;;;5098394;28;20020;-39
2021/12/04 05:37:31;;;;;;;0.60;0.57;;;14.90;49.70;;;;;;5081344;28;20016;-39
2021/12/04 05:39:57;;;;;;;0.70;0.60;;;14.90;49.70;;;;;;5100320;28;20099;-38
2021/12/04 05:42:23;;;;;;;0.95;0.70;;;14.90;49.80;;;;;;5100420;28;20040;-39
2021/12/04 05:44:49;;;;;;;0.70;0.57;;;14.90;49.80;;;;;;5100297;28;20028;-39
2021/12/04 05:47:30;;;;;;;1.52;0.60;;;14.90;49.70;;;;;;5100024;28;20493;-38
2021/12/04 05:50:15;;;;;;;1.08;0.70;;;14.90;49.80;;;;;;5099852;28;20474;-38
2021/12/04 05:55:15;;;;;;;1.00;0.70;;;14.90;49.80;;;;;;5100043;28;20077;-38
2021/12/04 05:57:40;;;;;;;1.92;0.60;;;14.90;49.80;;;;;;5100781;28;20019;-42
2021/12/04 06:00:14;;;;;;;0.90;0.60;;;14.90;50.40;;;;;;5099290;28;20074;-39
2021/12/04 06:02:40;;;;;;;0.70;0.68;;;14.90;49.90;;;;;;5083440;28;20016;-39
2021/12/04 06:05:07;;;;;;;0.85;0.60;;;14.90;49.90;;;;;;5100548;28;20024;-39
2021/12/04 06:07:33;;;;;;;0.82;0.60;;;14.90;49.80;;;;;;5098640;28;20048;-39
2021/12/04 06:09:59;;;;;;;0.80;0.80;;;14.90;49.90;;;;;;5081650;28;20532;-39
2021/12/04 06:12:25;;;;;;;1.90;0.77;;;14.90;49.90;;;;;;5081729;28;20167;-39
2021/12/04 06:14:52;;;;;;;1.00;0.80;;;14.90;49.90;;;;;;5099034;28;20016;-39
2021/12/04 06:17:19;;;;;;;0.90;0.70;;;14.90;49.90;;;;;;5098918;28;20012;-39
2021/12/04 06:22:42;;;;;;;1.17;0.70;;;14.90;49.90;;;;;;5082502;28;20094;-38
2021/12/04 06:25:13;;;;;;;0.90;0.77;;;14.90;50.00;;;;;;5098129;28;20077;-39
2021/12/04 06:27:39;;;;;;;1.08;0.80;;;14.90;50.00;;;;;;5080443;28;20030;-41
2021/12/04 06:30:07;;;;;;;1.00;0.80;;;14.90;50.00;;;;;;5080313;28;20083;-38
2021/12/04 06:32:35;;;;;;;1.45;0.90;;;14.90;50.00;;;;;;5079743;28;20051;-38
2021/12/04 06:35:02;;;;;;;0.70;0.60;;;14.80;50.00;;;;;;5098150;28;20017;-40
2021/12/04 06:37:28;;;;;;;0.70;0.70;;;14.90;50.10;;;;;;5098399;28;20025;-39
2021/12/04 06:39:55;;;;;;;1.42;0.80;;;14.80;50.10;;;;;;5098679;28;20070;-39
2021/12/04 06:42:21;;;;;;;1.17;0.80;;;14.80;50.00;;;;;;5098633;28;20070;-38
2021/12/04 06:44:47;;;;;;;1.00;0.90;;;14.80;50.10;;;;;;5098541;28;20029;-38
2021/12/04 06:47:13;;;;;;;0.80;0.80;;;14.80;50.10;;;;;;5098213;28;20099;-39
2021/12/04 06:49:42;;;;;;;2.35;0.90;;;14.80;50.10;;;;;;5080135;28;20066;-39
2021/12/04 06:52:11;;;;;;;1.83;1.00;;;14.90;50.10;;;;;;5098033;28;20031;-39
2021/12/04 06:54:41;;;;;;;0.77;0.77;;;14.90;50.10;;;;;;5080994;28;20050;-39
2021/12/04 06:57:10;;;;;;;1.25;0.82;;;14.80;50.10;;;;;;5098825;28;20264;-39
2021/12/04 06:59:38;;;;;;;1.40;1.00;;;14.80;50.10;;;;;;5098872;28;20036;-39
2021/12/04 07:02:05;;;;;;;1.52;0.80;;;14.80;50.20;;;;;;5098152;28;20035;-39
2021/12/04 07:04:35;;;;;;;1.38;1.00;;;14.80;50.10;;;;;;5097605;28;20070;-39
2021/12/04 07:07:05;;;;;;;1.17;1.08;;;14.80;50.20;;;;;;5097745;28;20421;-38
2021/12/04 07:09:30;;;;;;;1.25;1.02;;;14.80;50.10;;;;;;5097891;28;20069;-39
2021/12/04 07:11:57;;;;;;;1.20;1.08;;;14.80;50.10;;;;;;5063475;28;20020;-39
2021/12/04 07:14:23;;;;;;;1.30;1.10;;;14.80;50.10;;;;;;5066255;28;20095;-39
2021/12/04 07:16:49;;;;;;;1.52;1.10;;;14.80;50.20;;;;;;5082164;28;20063;-39
2021/12/04 07:19:15;;;;;;;1.42;1.02;;;14.80;50.20;;;;;;5101180;28;20069;-39
2021/12/04 07:21:44;;;;;;;1.40;1.00;;;14.80;50.10;;;;;;5102954;28;20040;-40
2021/12/04 07:24:13;;;;;;;1.00;0.90;;;14.80;50.20;;;;;;5102232;28;20072;-38
2021/12/04 07:26:39;;;;;;;1.20;1.10;;;14.80;50.20;;;;;;5084504;28;20020;-39
2021/12/04 07:29:05;;;;;;;1.20;1.10;;;14.80;50.20;;;;;;5100462;28;20027;-38
2021/12/04 07:31:31;;;;;;;1.33;1.17;;;14.80;50.20;;;;;;5101013;28;20471;-38
2021/12/04 07:33:57;;;;;;;1.40;1.10;;;14.80;50.20;;;;;;5100561;28;20023;-39
2021/12/04 07:36:23;;;;;;;1.42;1.05;;;14.80;50.20;;;;;;5101338;28;20013;-39
2021/12/04 07:38:49;;;;;;;1.55;1.10;;;14.80;50.20;;;;;;5101704;28;20096;-38
2021/12/04 07:41:15;;;;;;;1.75;1.60;;;14.80;50.30;;;;;;5102584;28;20054;-38
2021/12/04 07:43:41;;;;;;;4.85;1.25;;;14.80;50.20;;;;;;5084303;28;20043;-42
2021/12/04 07:46:10;;;;;;;2.10;1.20;;;14.70;50.30;;;;;;5083007;28;20024;-39
2021/12/04 07:48:35;;;;;;;1.83;1.42;;;14.70;50.20;;;;;;5083705;28;20020;-38
2021/12/04 07:51:02;;;;;;;1.10;1.00;;;14.80;50.30;;;;;;5101285;28;20036;-38
2021/12/04 07:53:29;;;;;;;1.08;0.95;;;14.80;50.30;;;;;;5066147;28;20024;-40
2021/12/04 07:55:54;;;;;;;2.17;1.27;;;14.70;50.20;;;;;;5099656;28;20015;-38
2021/12/04 07:58:20;;;;;;;1.50;1.25;;;14.70;50.30;;;;;;5101478;28;20066;-39
2021/12/04 08:00:47;;;;;;;1.45;1.35;;;14.70;50.30;;;;;;5101523;28;20029;-39
2021/12/04 08:03:12;;;;;;;1.27;1.13;;;14.70;50.30;;;;;;5066270;28;20037;-38
2021/12/04 08:05:38;;;;;;;1.30;1.20;;;14.70;50.30;;;;;;5101083;28;20031;-38
2021/12/04 08:08:04;;;;;;;1.50;1.30;;;14.70;50.30;;;;;;5065745;28;20039;-38
2021/12/04 08:10:31;;;;;;;2.10;1.20;;;14.70;50.30;;;;;;5100072;28;20032;-40
2021/12/04 08:12:59;;;;;;;1.80;1.30;;;14.70;50.30;;;;;;5102005;28;20031;-39
2021/12/04 08:15:24;;;;;;;1.77;1.30;;;14.70;50.40;;;;;;5101884;28;20019;-37
2021/12/04 08:17:50;;;;;;;2.05;1.40;;;14.70;50.30;;;;;;5102724;28;20013;-39
2021/12/04 08:20:16;;;;;;;1.95;1.45;;;14.70;50.40;;;;;;5102545;28;20111;-38
2021/12/04 08:22:42;;;;;;;1.80;1.50;;;14.70;50.40;;;;;;5083534;28;20020;-38
2021/12/04 08:25:09;;;;;;;1.55;1.40;;;14.80;50.40;;;;;;5101380;28;20112;-38
2021/12/04 08:27:35;;;;;;;1.60;1.30;;;14.70;50.30;;;;;;5082992;28;20087;-37
2021/12/04 08:30:03;;;;;;;1.65;1.30;;;14.70;50.30;;;;;;5100534;28;20535;-40
2021/12/04 08:32:29;;;;;;;2.25;1.70;;;14.70;50.30;;;;;;5100556;28;20079;-39
2021/12/04 08:34:56;;;;;;;1.70;1.30;;;14.70;50.30;;;;;;5101202;28;20031;-38
2021/12/04 08:37:22;;;;;;;1.65;1.20;;;14.70;50.30;;;;;;5101386;28;20044;-38
2021/12/04 08:39:49;;;;;;;1.70;1.38;;;14.70;50.30;;;;;;5101985;28;20032;-39
2021/12/04 08:42:15;;;;;;;1.55;1.45;;;14.70;50.30;;;;;;5101951;28;20042;-39
2021/12/04 08:44:43;;;;;;;1.63;1.48;;;14.70;50.30;;;;;;5101614;28;20016;-39
2021/12/04 08:47:10;;;;;;;2.33;1.65;;;14.70;50.40;;;;;;5101109;28;20020;-39
2021/12/04 08:49:36;;;;;;;1.42;1.23;;;14.70;50.40;;;;;;5100372;28;20390;-38
2021/12/04 08:52:04;;;;;;;2.45;1.48;;;14.70;50.40;;;;;;5100990;28;20087;-38
2021/12/04 08:54:31;;;;;;;2.08;1.63;;;14.70;50.50;;;;;;5099742;28;20044;-38
2021/12/04 08:56:57;;;;;;;2.67;1.50;;;14.70;50.50;;;;;;5100065;28;20023;-38
2021/12/04 08:59:23;;;;;;;1.90;1.60;;;14.70;50.50;;;;;;5100174;28;20039;-39
2021/12/04 09:01:49;;;;;;;1.60;1.50;;;14.70;50.60;;;;;;5100027;28;20470;-38
2021/12/04 09:04:18;;;;;;;2.90;1.70;;;14.60;50.50;;;;;;5065849;28;20128;-38
2021/12/04 09:06:45;;;;;;;2.05;1.60;;;14.70;50.60;;;;;;5100278;28;20012;-39
2021/12/04 09:09:12;;;;;;;1.60;1.42;;;14.70;50.50;;;;;;5100350;28;20043;-38
2021/12/04 09:11:48;;;;;;;2.40;1.60;;;14.70;50.50;;;;;;5100076;28;20019;-38
2021/12/04 09:14:15;;;;;;;2.45;1.60;;;14.70;50.60;;;;;;5099731;28;20023;-38
2021/12/04 09:16:41;;;;;;;2.10;1.60;;;14.70;50.60;;;;;;5099645;28;20015;-40
2021/12/04 09:19:08;;;;;;;1.85;1.48;;;14.60;50.60;;;;;;5100705;28;20012;-38
2021/12/04 09:21:37;;;;;;;2.03;1.70;;;14.60;50.60;;;;;;5099538;28;20042;-39
2021/12/04 09:24:14;;;;;;;2.08;1.60;;;14.60;50.60;;;;;;5099887;28;20035;-38
2021/12/04 09:26:59;;;;;;;1.85;1.63;;;14.60;50.60;;;;;;5081732;28;20098;-39
2021/12/04 09:29:47;;;;;;;2.40;1.67;;;14.70;50.60;;;;;;5100094;28;20069;-38
2021/12/04 10:24:13;;;;;;;2.70;1.80;;;14.70;50.70;;;;;;5007189;28;20439;-39
2021/12/04 10:35:16;;;;;;;2.10;1.70;;;14.60;50.70;;;;;;5018232;28;20054;-38
2021/12/04 10:37:57;;;;;;;2.42;1.88;;;14.70;50.80;;;;;;5018235;28;20014;-38
2021/12/04 10:40:24;;;;;;;2.75;1.80;;;14.70;50.70;;;;;;5017646;28;20484;-38
2021/12/04 10:42:56;;;;;;;3.13;2.03;;;14.70;50.80;;;;;;5016713;28;20057;-38
2021/12/04 10:45:36;;;;;;;2.65;1.95;;;14.60;50.80;;;;;;5016961;28;20025;-39
2021/12/04 10:48:06;;;;;;;3.40;1.90;;;14.70;50.90;;;;;;5017369;28;20500;-38
2021/12/04 10:50:46;;;;;;;;;;;14.60;50.80;;;;;;5017534;28;20080;-38
2021/12/04 10:53:34;;;;;;;2.53;1.83;;;14.60;50.90;;;;;;5017441;28;19901;-39
2021/12/04 10:59:06;;;;;;;2.20;1.73;;;14.60;51.00;;;;;;5102799;28;20024;-38
2021/12/04 11:04:26;;;;;;;2.73;2.07;;;14.60;51.00;;;;;;5102573;28;20434;-38
2021/12/04 11:23:45;;;;;;;2.30;1.70;;;14.60;51.10;;;;;;5086466;28;20027;-39
2021/12/04 11:37:08;;;;;;;3.13;2.30;;;14.60;51.20;;;;;;5102547;28;20113;-39
2021/12/04 11:39:51;;;;;;;2.70;1.95;;;14.60;51.30;;;;;;5070619;28;20020;-40
2021/12/04 11:42:22;;;;;;;2.67;2.10;;;14.60;51.30;;;;;;5101929;28;20059;-42
2021/12/04 11:47:16;;;;;;;3.83;2.50;;;14.60;51.30;;;;;;5103435;28;20038;-40
2021/12/04 11:49:49;;;;;;;2.88;2.30;;;14.60;51.30;;;;;;5102877;28;20020;-39
2021/12/04 11:52:20;;;;;;;2.55;1.92;;;14.60;51.30;;;;;;5085465;28;20076;-39
2021/12/04 11:54:58;;;;;;;2.75;2.10;;;14.60;51.40;;;;;;5102886;28;20008;-39
2021/12/04 11:57:31;;;;;;;3.05;2.17;;;14.60;51.40;;;;;;5086129;28;20079;-41
2021/12/04 12:00:36;;;;;;;4.00;2.38;;;14.60;51.40;;;;;;5102256;28;20019;-40
2021/12/04 12:03:13;;;;;;;3.28;2.20;;;14.60;51.40;;;;;;5080141;28;20028;-40
2021/12/04 12:05:58;;;;;;;2.55;2.00;;;14.60;51.50;;;;;;5101088;28;20069;-38
2021/12/04 12:08:28;;;;;;;2.95;2.35;;;14.60;51.50;;;;;;5101245;28;20035;-38
2021/12/04 12:11:23;;;;;;;3.15;2.30;;;14.50;51.50;;;;;;5101005;28;20040;-39
2021/12/04 12:13:50;;;;;;;2.80;2.35;;;14.60;51.50;;;;;;5088893;28;20028;-39
2021/12/04 12:16:27;;;;;;;3.40;2.55;;;14.60;51.60;;;;;;5102070;28;20016;-39
2021/12/04 12:18:55;;;;;;;4.07;2.40;;;14.60;51.60;;;;;;5084275;28;20000;-38
2021/12/04 12:21:28;;;;;;;3.15;2.47;;;14.60;51.70;;;;;;5101790;28;20031;-39
2021/12/04 12:27:13;;;;;;;3.00;2.10;;;14.50;51.60;;;;;;5103054;28;20032;-40
2021/12/04 12:33:03;;;;;;;3.38;2.30;;;14.60;51.70;;;;;;5103376;28;20042;-38
2021/12/04 12:38:53;;;;;;;3.58;2.30;;;14.60;51.80;;;;;;5101576;28;20031;-38
2021/12/04 12:41:32;;;;;;;3.28;2.20;;;14.50;51.70;;;;;;5082386;28;20032;-38
2021/12/04 12:44:20;;;;;;;3.40;2.10;;;14.50;51.80;;;;;;5100554;28;20018;-38
2021/12/04 12:46:52;;;;;;;3.80;2.72;;;14.50;51.90;;;;;;5082828;28;20024;-38
2021/12/04 12:49:34;;;;;;;3.10;2.17;;;14.50;51.80;;;;;;5099867;28;20470;-38
2021/12/04 12:52:10;;;;;;;3.33;2.30;;;14.50;51.90;;;;;;5099707;28;20091;-38
2021/12/04 12:54:38;;;;;;;4.07;2.22;;;14.60;51.90;;;;;;5100571;28;20012;-38
2021/12/04 12:57:06;;;;;;;3.08;2.40;;;14.50;51.80;;;;;;5100389;28;20489;-40
2021/12/04 13:13:38;;;;;;;2.60;2.08;;;14.60;52.10;;;;;;5099246;28;20394;-38
2021/12/04 13:16:14;;;;;;;2.58;2.20;;;14.50;52.60;;;;;;5080884;28;20034;-38
2021/12/04 13:18:40;;;;;;;3.75;2.17;;;14.50;52.20;;;;;;5098627;28;20020;-39
2021/12/04 13:21:08;;;;;;;3.45;2.30;;;14.50;52.10;;;;;;5099500;28;20016;-38
2021/12/04 13:23:34;;;;;;;2.92;2.15;;;14.60;52.10;;;;;;5081033;28;20013;-38
2021/12/04 13:26:04;;;;;;;3.35;2.20;;;14.60;52.10;;;;;;5098787;28;20588;-40
2021/12/04 13:28:32;;;;;;;2.83;2.08;;;14.50;52.20;;;;;;5081536;28;20020;-38
2021/12/04 13:31:00;;;;;;;2.60;2.00;;;14.50;52.20;;;;;;5098222;28;20030;-38
2021/12/04 13:33:36;;;;;;;3.47;2.20;;;14.50;52.20;;;;;;5081306;28;20019;-38
2021/12/04 13:36:03;;;;;;;3.10;2.25;;;14.50;52.20;;;;;;5099028;28;20012;-37
2021/12/04 13:38:29;;;;;;;2.47;1.90;;;14.50;52.30;;;;;;5080649;28;20095;-38
2021/12/04 13:40:56;;;;;;;3.13;2.10;;;14.50;52.30;;;;;;5097283;28;20056;-37
2021/12/04 13:43:23;;;;;;;3.00;2.25;;;14.50;52.20;;;;;;5099393;28;20023;-38
2021/12/04 13:45:59;;;;;;;2.40;1.88;;;14.50;53.00;;;;;;5098863;28;20092;-38
2021/12/04 13:48:25;;;;;;;2.72;2.17;;;14.50;52.40;;;;;;5098338;28;20012;-37
2021/12/04 13:50:52;;;;;;;2.58;2.25;;;14.50;52.40;;;;;;5079565;28;20079;-38
2021/12/04 13:53:28;;;;;;;2.78;2.05;;;14.50;52.40;;;;;;5079609;28;20013;-38
2021/12/04 13:56:04;;;;;;;2.40;1.90;;;14.50;52.50;;;;;;5097448;28;20009;-38
2021/12/04 13:58:30;;;;;;;2.60;2.10;;;14.50;52.50;;;;;;5097098;28;20075;-38
2021/12/04 14:00:55;;;;;;;3.20;2.20;;;14.50;52.50;;;;;;5097563;28;20482;-39
2021/12/04 14:03:25;;;;;;;3.00;2.30;;;14.60;52.50;;;;;;5097273;28;20020;-38
2021/12/04 14:05:51;;;;;;;2.70;2.10;;;14.60;52.50;;;;;;5097710;28;20020;-37
2021/12/04 14:08:17;;;;;;;2.95;1.95;;;14.60;52.50;;;;;;5097378;28;20052;-37
2021/12/04 14:10:45;;;;;;;2.58;1.88;;;14.60;52.60;;;;;;5097426;28;20488;-38
2021/12/04 14:13:12;;;;;;;3.60;2.00;;;14.50;52.60;;;;;;5096906;28;20035;-38
2021/12/04 14:15:43;;;;;;;2.60;1.92;;;14.50;52.60;;;;;;5097415;28;20020;-37
2021/12/04 14:18:10;;;;;;;3.72;2.33;;;14.50;52.70;;;;;;5097688;28;20036;-39
2021/12/04 14:20:38;;;;;;;2.75;2.00;;;14.50;52.70;;;;;;5078589;28;20008;-40
2021/12/04 14:23:04;;;;;;;3.47;2.13;;;14.50;52.80;;;;;;5097296;28;20016;-37
2021/12/04 14:25:30;;;;;;;2.45;2.00;;;14.50;52.80;;;;;;5096758;28;20019;-38
2021/12/04 14:27:57;;;;;;;2.60;2.15;;;14.50;52.80;;;;;;5079107;28;20032;-38
2021/12/04 14:30:35;;;;;;;4.22;2.03;;;14.50;52.80;;;;;;5097537;28;20024;-38
2021/12/04 14:33:04;;;;;;;3.03;2.47;;;14.50;52.80;;;;;;5097026;28;20107;-38
2021/12/04 14:35:33;;;;;;;2.95;2.25;;;14.50;52.80;;;;;;5097502;28;20004;-38
2021/12/04 14:38:03;;;;;;;3.08;2.10;;;14.50;52.80;;;;;;5096087;28;20012;-37
2021/12/04 14:40:40;;;;;;;;;;;14.50;52.80;;;;;;5096573;28;20083;-38
2021/12/04 14:43:07;;;;;;;1.70;1.58;;;14.50;52.80;;;;;;5077966;28;19900;-40
2021/12/04 14:45:34;;;;;;;3.30;2.10;;;14.50;52.80;;;;;;5096994;28;20537;-38
2021/12/04 14:48:03;;;;;;;2.97;1.80;;;14.50;52.80;;;;;;5080178;28;20048;-38
2021/12/04 14:50:29;;;;;;;2.20;1.70;;;14.50;52.80;;;;;;5079206;28;20024;-38
2021/12/04 14:52:59;;;;;;;3.85;2.20;;;14.50;52.80;;;;;;5096667;28;20523;-37
2021/12/04 14:55:35;;;;;;;3.25;2.15;;;14.50;52.80;;;;;;5097860;28;20017;-40
2021/12/04 14:58:01;;;;;;;2.67;1.92;;;14.50;52.80;;;;;;5080515;28;20095;-38
2021/12/04 15:00:32;;;;;;;2.80;1.90;;;14.50;52.80;;;;;;5078697;28;20016;-37
2021/12/04 15:03:02;;;;;;;3.85;2.17;;;14.50;52.80;;;;;;5097492;28;20074;-37
2021/12/04 15:05:48;;;;;;;2.53;1.70;;;14.50;52.80;;;;;;5096674;28;20023;-37
2021/12/04 15:08:16;;;;;;;2.30;1.77;;;14.50;52.70;;;;;;5061215;28;20109;-38
2021/12/04 15:10:43;;;;;;;2.65;1.90;;;14.50;52.80;;;;;;5078742;28;20085;-38
2021/12/04 15:13:50;;;;;;;3.30;1.77;;;14.50;52.80;;;;;;5096934;28;20092;-38
2021/12/04 15:16:17;;;;;;;2.70;1.73;;;14.50;52.80;;;;;;5096717;28;20028;-38
2021/12/04 15:18:42;;;;;;;2.97;1.90;;;14.50;52.70;;;;;;5079020;28;20013;-37
2021/12/04 15:21:15;;;;;;;3.00;1.90;;;14.50;52.70;;;;;;5096524;28;20020;-37
2021/12/04 15:23:41;;;;;;;2.70;1.83;;;14.50;52.90;;;;;;5096167;28;20016;-38
2021/12/04 15:26:18;;;;;;;2.15;1.80;;;14.50;52.90;;;;;;5096645;28;20474;-38
2021/12/04 15:28:49;;;;;;;2.92;1.80;;;14.50;52.90;;;;;;5096678;28;20016;-38
2021/12/04 15:31:16;;;;;;;2.60;1.88;;;14.50;52.90;;;;;;5096576;28;20031;-37
2021/12/04 15:33:46;;;;;;;3.08;1.95;;;14.40;52.80;;;;;;5078150;28;20017;-38
2021/12/04 15:36:47;;;;;;;2.92;1.95;;;14.40;52.90;;;;;;5078226;28;20012;-38
2021/12/04 15:39:29;;;;;;;3.20;1.98;;;14.50;52.80;;;;;;4979332;28;20117;-38
2021/12/04 15:53:04;;;;;;;3.13;2.00;;;14.40;52.90;;;;;;4977609;28;20026;-37
2021/12/04 15:56:10;;;;;;;5.05;2.00;;;14.40;53.00;;;;;;4998567;28;20269;-37
2021/12/04 15:58:36;;;;;;;4.80;2.20;;;14.40;53.00;;;;;;4998845;28;20027;-37
2021/12/04 16:01:07;;;;;;;3.92;1.90;;;14.40;53.00;;;;;;4981688;28;20037;-37
2021/12/04 16:03:36;;;;;;;3.10;2.00;;;14.40;53.00;;;;;;4966068;28;20109;-37
2021/12/04 16:06:07;;;;;;;2.73;1.80;;;14.40;52.90;;;;;;4998100;28;20054;-38
2021/12/04 16:08:32;;;;;;;2.50;1.80;;;14.40;53.00;;;;;;4966457;28;20298;-39
2021/12/04 16:11:04;;;;;;;2.85;1.90;;;14.40;53.00;;;;;;4981374;28;20038;-37
2021/12/04 16:13:32;;;;;;;2.92;1.73;;;14.40;52.90;;;;;;4997842;28;20018;-37